sensor_id;sensor_type;location;lat;lon;timestamp;P1;durP1;ratioP1;P2;durP2;ratioP2
51272;SDS011;37345;59.828;30.328;2022-09-13T00:01:46;6.95;;;3.88;;
51272;SDS011;37345;59.828;30.328;2022-09-13T00:04:12;15.05;;;5.43;;
51272;SDS011;37345;59.828;30.328;2022-09-13T00:06:38;11.90;;;5.43;;
51272;SDS011;37345;59.828;30.328;2022-09-13T00:09:04;13.32;;;6.07;;
51272;SDS011;37345;59.828;30.328;2022-09-13T00:11:30;14.85;;;6.55;;
51272;SDS011;37345;59.828;30.328;2022-09-13T00:13:57;11.45;;;5.68;;
51272;SDS011;37345;59.828;30.328;2022-09-13T00:16:24;12.95;;;6.30;;
51272;SDS011;37345;59.828;30.328;2022-09-13T00:18:51;11.80;;;6.55;;
51272;SDS011;37345;59.828;30.328;2022-09-13T00:21:17;14.32;;;6.68;;
51272;SDS011;37345;59.828;30.328;2022-09-13T00:23:45;14.02;;;6.53;;
51272;SDS011;37345;59.828;30.328;2022-09-13T00:26:15;17.67;;;6.45;;
51272;SDS011;37345;59.828;30.328;2022-09-13T00:28:42;9.05;;;5.57;;
51272;SDS011;37345;59.828;30.328;2022-09-13T00:31:09;10.93;;;5.40;;
51272;SDS011;37345;59.828;30.328;2022-09-13T00:33:36;12.95;;;6.57;;
51272;SDS011;37345;59.828;30.328;2022-09-13T00:36:04;11.03;;;5.23;;
51272;SDS011;37345;59.828;30.328;2022-09-13T00:38:30;8.65;;;5.60;;
51272;SDS011;37345;59.828;30.328;2022-09-13T00:40:56;13.13;;;5.55;;
51272;SDS011;37345;59.828;30.328;2022-09-13T00:43:39;11.07;;;5.45;;
51272;SDS011;37345;59.828;30.328;2022-09-13T00:46:06;9.73;;;5.25;;
51272;SDS011;37345;59.828;30.328;2022-09-13T00:48:32;9.13;;;4.97;;
51272;SDS011;37345;59.828;30.328;2022-09-13T00:50:59;10.90;;;5.30;;
51272;SDS011;37345;59.828;30.328;2022-09-13T00:53:30;13.50;;;6.00;;
51272;SDS011;37345;59.828;30.328;2022-09-13T00:58:25;9.50;;;5.15;;
51272;SDS011;37345;59.828;30.328;2022-09-13T01:00:52;12.30;;;5.20;;
51272;SDS011;37345;59.828;30.328;2022-09-13T01:03:19;10.55;;;5.10;;
51272;SDS011;37345;59.828;30.328;2022-09-13T01:05:47;9.70;;;5.15;;
51272;SDS011;37345;59.828;30.328;2022-09-13T01:08:15;11.70;;;5.30;;
51272;SDS011;37345;59.828;30.328;2022-09-13T01:10:46;9.88;;;5.30;;
51272;SDS011;37345;59.828;30.328;2022-09-13T01:15:44;7.78;;;4.75;;
51272;SDS011;37345;59.828;30.328;2022-09-13T01:18:11;9.35;;;4.60;;
51272;SDS011;37345;59.828;30.328;2022-09-13T01:23:28;13.40;;;5.38;;
51272;SDS011;37345;59.828;30.328;2022-09-13T01:28:52;8.18;;;4.55;;
51272;SDS011;37345;59.828;30.328;2022-09-13T01:31:24;8.02;;;5.07;;
51272;SDS011;37345;59.828;30.328;2022-09-13T01:42:07;9.65;;;5.40;;
51272;SDS011;37345;59.828;30.328;2022-09-13T01:44:58;9.53;;;5.87;;
51272;SDS011;37345;59.828;30.328;2022-09-13T01:49:59;13.07;;;6.00;;
51272;SDS011;37345;59.828;30.328;2022-09-13T02:00:19;17.88;;;6.82;;
51272;SDS011;37345;59.828;30.328;2022-09-13T02:07:58;10.80;;;5.85;;
51272;SDS011;37345;59.828;30.328;2022-09-13T02:10:27;7.67;;;5.10;;
51272;SDS011;37345;59.828;30.328;2022-09-13T02:12:54;8.25;;;5.13;;
51272;SDS011;37345;59.828;30.328;2022-09-13T02:15:22;7.13;;;5.40;;
51272;SDS011;37345;59.828;30.328;2022-09-13T02:18:01;10.83;;;5.13;;
51272;SDS011;37345;59.828;30.328;2022-09-13T02:20:31;12.00;;;5.50;;
51272;SDS011;37345;59.828;30.328;2022-09-13T02:23:01;8.00;;;4.80;;
51272;SDS011;37345;59.828;30.328;2022-09-13T02:25:27;10.82;;;5.07;;
51272;SDS011;37345;59.828;30.328;2022-09-13T02:27:55;6.78;;;4.40;;
51272;SDS011;37345;59.828;30.328;2022-09-13T02:30:25;8.30;;;4.57;;
51272;SDS011;37345;59.828;30.328;2022-09-13T02:32:56;7.10;;;4.00;;
51272;SDS011;37345;59.828;30.328;2022-09-13T02:35:31;7.65;;;3.88;;
51272;SDS011;37345;59.828;30.328;2022-09-13T02:38:03;5.10;;;3.47;;
51272;SDS011;37345;59.828;30.328;2022-09-13T02:40:31;6.22;;;3.65;;
51272;SDS011;37345;59.828;30.328;2022-09-13T02:43:12;4.72;;;3.50;;
51272;SDS011;37345;59.828;30.328;2022-09-13T02:45:41;5.18;;;3.15;;
51272;SDS011;37345;59.828;30.328;2022-09-13T02:48:11;6.70;;;4.10;;
51272;SDS011;37345;59.828;30.328;2022-09-13T02:58:28;4.28;;;3.10;;
51272;SDS011;37345;59.828;30.328;2022-09-13T03:00:57;4.95;;;3.17;;
51272;SDS011;37345;59.828;30.328;2022-09-13T03:03:23;5.38;;;3.65;;
51272;SDS011;37345;59.828;30.328;2022-09-13T03:05:49;4.80;;;3.40;;
51272;SDS011;37345;59.828;30.328;2022-09-13T03:08:15;5.03;;;3.40;;
51272;SDS011;37345;59.828;30.328;2022-09-13T03:13:32;6.07;;;3.38;;
51272;SDS011;37345;59.828;30.328;2022-09-13T03:16:07;5.32;;;3.33;;
51272;SDS011;37345;59.828;30.328;2022-09-13T03:29:08;5.15;;;2.83;;
51272;SDS011;37345;59.828;30.328;2022-09-13T03:32:01;3.42;;;2.80;;
51272;SDS011;37345;59.828;30.328;2022-09-13T03:34:58;4.65;;;3.00;;
51272;SDS011;37345;59.828;30.328;2022-09-13T03:37:35;6.97;;;3.20;;
51272;SDS011;37345;59.828;30.328;2022-09-13T03:40:40;3.47;;;2.70;;
51272;SDS011;37345;59.828;30.328;2022-09-13T03:46:25;4.75;;;3.30;;
51272;SDS011;37345;59.828;30.328;2022-09-13T03:49:03;6.27;;;2.73;;
51272;SDS011;37345;59.828;30.328;2022-09-13T03:51:34;4.72;;;2.90;;
51272;SDS011;37345;59.828;30.328;2022-09-13T03:54:03;4.23;;;2.50;;
51272;SDS011;37345;59.828;30.328;2022-09-13T03:56:30;4.68;;;2.60;;
51272;SDS011;37345;59.828;30.328;2022-09-13T03:58:56;3.78;;;2.50;;
51272;SDS011;37345;59.828;30.328;2022-09-13T04:01:22;7.97;;;2.80;;
51272;SDS011;37345;59.828;30.328;2022-09-13T04:03:49;4.87;;;2.67;;
51272;SDS011;37345;59.828;30.328;2022-09-13T04:06:15;4.57;;;2.60;;
51272;SDS011;37345;59.828;30.328;2022-09-13T04:08:41;3.80;;;2.40;;
51272;SDS011;37345;59.828;30.328;2022-09-13T04:11:08;4.22;;;2.50;;
51272;SDS011;37345;59.828;30.328;2022-09-13T04:13:35;4.90;;;2.47;;
51272;SDS011;37345;59.828;30.328;2022-09-13T04:16:02;2.88;;;2.05;;
51272;SDS011;37345;59.828;30.328;2022-09-13T04:18:28;5.38;;;2.80;;
51272;SDS011;37345;59.828;30.328;2022-09-13T04:20:55;4.55;;;2.25;;
51272;SDS011;37345;59.828;30.328;2022-09-13T04:23:22;4.27;;;2.67;;
51272;SDS011;37345;59.828;30.328;2022-09-13T04:25:48;6.63;;;2.75;;
51272;SDS011;37345;59.828;30.328;2022-09-13T04:28:16;3.63;;;2.78;;
51272;SDS011;37345;59.828;30.328;2022-09-13T04:30:45;2.97;;;2.28;;
51272;SDS011;37345;59.828;30.328;2022-09-13T04:33:11;3.53;;;2.42;;
51272;SDS011;37345;59.828;30.328;2022-09-13T04:35:38;3.80;;;2.75;;
51272;SDS011;37345;59.828;30.328;2022-09-13T04:38:05;5.70;;;3.10;;
51272;SDS011;37345;59.828;30.328;2022-09-13T04:41:17;3.95;;;2.67;;
51272;SDS011;37345;59.828;30.328;2022-09-13T04:43:24;3.85;;;2.55;;
51272;SDS011;37345;59.828;30.328;2022-09-13T04:45:50;4.23;;;2.80;;
51272;SDS011;37345;59.828;30.328;2022-09-13T04:48:16;4.80;;;2.60;;
51272;SDS011;37345;59.828;30.328;2022-09-13T04:50:42;3.60;;;2.38;;
51272;SDS011;37345;59.828;30.328;2022-09-13T04:53:09;5.23;;;2.63;;
51272;SDS011;37345;59.828;30.328;2022-09-13T04:55:35;6.35;;;2.95;;
51272;SDS011;37345;59.828;30.328;2022-09-13T04:58:01;5.18;;;2.75;;
51272;SDS011;37345;59.828;30.328;2022-09-13T05:00:28;5.35;;;2.85;;
51272;SDS011;37345;59.828;30.328;2022-09-13T05:02:54;2.93;;;2.50;;
51272;SDS011;37345;59.828;30.328;2022-09-13T05:05:21;4.20;;;2.42;;
51272;SDS011;37345;59.828;30.328;2022-09-13T05:07:51;6.45;;;2.60;;
51272;SDS011;37345;59.828;30.328;2022-09-13T05:10:17;3.72;;;2.78;;
51272;SDS011;37345;59.828;30.328;2022-09-13T05:12:43;4.93;;;2.80;;
51272;SDS011;37345;59.828;30.328;2022-09-13T05:15:09;4.07;;;2.97;;
51272;SDS011;37345;59.828;30.328;2022-09-13T05:17:36;4.68;;;2.60;;
51272;SDS011;37345;59.828;30.328;2022-09-13T05:20:03;5.95;;;2.70;;
51272;SDS011;37345;59.828;30.328;2022-09-13T05:22:30;5.28;;;2.80;;
51272;SDS011;37345;59.828;30.328;2022-09-13T05:24:56;4.60;;;2.72;;
51272;SDS011;37345;59.828;30.328;2022-09-13T05:27:31;4.82;;;2.67;;
51272;SDS011;37345;59.828;30.328;2022-09-13T05:29:57;6.90;;;2.88;;
51272;SDS011;37345;59.828;30.328;2022-09-13T05:32:27;5.35;;;2.95;;
51272;SDS011;37345;59.828;30.328;2022-09-13T05:34:55;6.10;;;2.92;;
51272;SDS011;37345;59.828;30.328;2022-09-13T05:37:21;4.15;;;2.75;;
51272;SDS011;37345;59.828;30.328;2022-09-13T05:39:47;5.10;;;2.85;;
51272;SDS011;37345;59.828;30.328;2022-09-13T05:42:14;4.30;;;3.30;;
51272;SDS011;37345;59.828;30.328;2022-09-13T05:44:40;5.50;;;3.10;;
51272;SDS011;37345;59.828;30.328;2022-09-13T05:47:06;5.22;;;3.17;;
51272;SDS011;37345;59.828;30.328;2022-09-13T05:49:32;6.63;;;3.27;;
51272;SDS011;37345;59.828;30.328;2022-09-13T05:51:58;3.70;;;2.80;;
51272;SDS011;37345;59.828;30.328;2022-09-13T05:54:24;5.00;;;3.65;;
51272;SDS011;37345;59.828;30.328;2022-09-13T05:56:51;5.60;;;3.33;;
51272;SDS011;37345;59.828;30.328;2022-09-13T05:59:18;6.05;;;3.15;;
51272;SDS011;37345;59.828;30.328;2022-09-13T06:01:44;7.07;;;3.20;;
51272;SDS011;37345;59.828;30.328;2022-09-13T06:04:10;6.45;;;3.20;;
51272;SDS011;37345;59.828;30.328;2022-09-13T06:06:36;5.28;;;3.47;;
51272;SDS011;37345;59.828;30.328;2022-09-13T06:09:03;4.65;;;3.00;;
51272;SDS011;37345;59.828;30.328;2022-09-13T06:11:32;8.98;;;3.22;;
51272;SDS011;37345;59.828;30.328;2022-09-13T06:13:58;6.13;;;2.95;;
51272;SDS011;37345;59.828;30.328;2022-09-13T06:16:24;6.45;;;2.80;;
51272;SDS011;37345;59.828;30.328;2022-09-13T06:18:50;7.53;;;3.20;;
51272;SDS011;37345;59.828;30.328;2022-09-13T06:21:17;5.30;;;3.13;;
51272;SDS011;37345;59.828;30.328;2022-09-13T06:23:45;5.00;;;2.90;;
51272;SDS011;37345;59.828;30.328;2022-09-13T06:26:12;6.20;;;3.22;;
51272;SDS011;37345;59.828;30.328;2022-09-13T06:28:38;4.97;;;3.08;;
51272;SDS011;37345;59.828;30.328;2022-09-13T06:31:09;4.65;;;3.28;;
51272;SDS011;37345;59.828;30.328;2022-09-13T06:33:36;5.55;;;3.33;;
51272;SDS011;37345;59.828;30.328;2022-09-13T06:36:03;8.70;;;3.60;;
51272;SDS011;37345;59.828;30.328;2022-09-13T06:38:30;6.13;;;2.93;;
51272;SDS011;37345;59.828;30.328;2022-09-13T06:41:00;4.18;;;2.80;;
51272;SDS011;37345;59.828;30.328;2022-09-13T06:43:26;5.93;;;3.10;;
51272;SDS011;37345;59.828;30.328;2022-09-13T06:45:53;4.88;;;3.25;;
51272;SDS011;37345;59.828;30.328;2022-09-13T06:48:19;5.05;;;3.17;;
51272;SDS011;37345;59.828;30.328;2022-09-13T06:50:45;7.82;;;3.70;;
51272;SDS011;37345;59.828;30.328;2022-09-13T06:53:11;9.27;;;3.40;;
51272;SDS011;37345;59.828;30.328;2022-09-13T06:55:37;7.10;;;3.22;;
51272;SDS011;37345;59.828;30.328;2022-09-13T06:58:03;6.37;;;3.20;;
51272;SDS011;37345;59.828;30.328;2022-09-13T07:00:32;5.80;;;3.45;;
51272;SDS011;37345;59.828;30.328;2022-09-13T07:03:01;6.13;;;3.20;;
51272;SDS011;37345;59.828;30.328;2022-09-13T07:05:27;7.63;;;3.95;;
51272;SDS011;37345;59.828;30.328;2022-09-13T07:07:54;5.43;;;3.38;;
51272;SDS011;37345;59.828;30.328;2022-09-13T07:13:18;5.63;;;3.03;;
51272;SDS011;37345;59.828;30.328;2022-09-13T07:15:45;5.82;;;3.42;;
51272;SDS011;37345;59.828;30.328;2022-09-13T07:18:11;7.85;;;3.53;;
51272;SDS011;37345;59.828;30.328;2022-09-13T07:20:40;7.87;;;3.50;;
51272;SDS011;37345;59.828;30.328;2022-09-13T07:23:38;5.30;;;3.13;;
51272;SDS011;37345;59.828;30.328;2022-09-13T07:26:05;7.10;;;3.00;;
51272;SDS011;37345;59.828;30.328;2022-09-13T07:28:35;5.53;;;3.17;;
51272;SDS011;37345;59.828;30.328;2022-09-13T07:31:06;6.18;;;3.40;;
51272;SDS011;37345;59.828;30.328;2022-09-13T07:33:34;7.55;;;3.42;;
51272;SDS011;37345;59.828;30.328;2022-09-13T07:36:01;5.47;;;3.35;;
51272;SDS011;37345;59.828;30.328;2022-09-13T07:38:30;6.85;;;2.97;;
51272;SDS011;37345;59.828;30.328;2022-09-13T07:41:00;5.97;;;3.45;;
51272;SDS011;37345;59.828;30.328;2022-09-13T07:46:48;7.75;;;3.40;;
51272;SDS011;37345;59.828;30.328;2022-09-13T07:49:16;8.27;;;3.33;;
51272;SDS011;37345;59.828;30.328;2022-09-13T07:51:42;7.60;;;3.05;;
51272;SDS011;37345;59.828;30.328;2022-09-13T07:54:10;8.95;;;3.55;;
51272;SDS011;37345;59.828;30.328;2022-09-13T07:56:37;8.55;;;3.47;;
51272;SDS011;37345;59.828;30.328;2022-09-13T07:59:04;7.47;;;3.20;;
51272;SDS011;37345;59.828;30.328;2022-09-13T08:01:35;5.30;;;3.03;;
51272;SDS011;37345;59.828;30.328;2022-09-13T08:04:12;4.45;;;3.13;;
51272;SDS011;37345;59.828;30.328;2022-09-13T08:06:39;6.55;;;3.17;;
51272;SDS011;37345;59.828;30.328;2022-09-13T08:09:07;8.70;;;3.08;;
51272;SDS011;37345;59.828;30.328;2022-09-13T08:11:38;3.42;;;3.10;;
51272;SDS011;37345;59.828;30.328;2022-09-13T08:14:05;6.28;;;3.20;;
51272;SDS011;37345;59.828;30.328;2022-09-13T08:16:32;7.15;;;3.08;;
51272;SDS011;37345;59.828;30.328;2022-09-13T08:19:00;5.13;;;3.07;;
51272;SDS011;37345;59.828;30.328;2022-09-13T08:21:30;7.18;;;3.55;;
51272;SDS011;37345;59.828;30.328;2022-09-13T08:23:56;8.20;;;3.63;;
51272;SDS011;37345;59.828;30.328;2022-09-13T08:26:25;5.70;;;3.40;;
51272;SDS011;37345;59.828;30.328;2022-09-13T08:28:54;9.88;;;3.50;;
51272;SDS011;37345;59.828;30.328;2022-09-13T08:31:20;6.18;;;3.25;;
51272;SDS011;37345;59.828;30.328;2022-09-13T08:33:47;11.83;;;3.43;;
51272;SDS011;37345;59.828;30.328;2022-09-13T08:36:14;8.43;;;3.55;;
51272;SDS011;37345;59.828;30.328;2022-09-13T08:38:51;8.53;;;3.20;;
51272;SDS011;37345;59.828;30.328;2022-09-13T08:46:21;7.90;;;3.03;;
51272;SDS011;37345;59.828;30.328;2022-09-13T08:48:49;6.03;;;3.28;;
51272;SDS011;37345;59.828;30.328;2022-09-13T08:54:15;9.20;;;3.42;;
51272;SDS011;37345;59.828;30.328;2022-09-13T09:04:51;4.63;;;2.90;;
51272;SDS011;37345;59.828;30.328;2022-09-13T09:07:23;7.15;;;3.30;;
51272;SDS011;37345;59.828;30.328;2022-09-13T09:09:55;6.65;;;2.90;;
51272;SDS011;37345;59.828;30.328;2022-09-13T09:12:29;5.95;;;2.80;;
51272;SDS011;37345;59.828;30.328;2022-09-13T09:15:02;5.90;;;2.92;;
51272;SDS011;37345;59.828;30.328;2022-09-13T09:20:29;4.25;;;2.55;;
51272;SDS011;37345;59.828;30.328;2022-09-13T09:23:03;4.55;;;2.63;;
51272;SDS011;37345;59.828;30.328;2022-09-13T09:25:30;6.93;;;2.30;;
51272;SDS011;37345;59.828;30.328;2022-09-13T09:27:56;8.50;;;2.67;;
51272;SDS011;37345;59.828;30.328;2022-09-13T09:30:23;8.55;;;2.40;;
51272;SDS011;37345;59.828;30.328;2022-09-13T09:38:40;3.47;;;2.00;;
51272;SDS011;37345;59.828;30.328;2022-09-13T09:43:54;6.37;;;2.10;;
51272;SDS011;37345;59.828;30.328;2022-09-13T09:46:22;2.90;;;2.17;;
51272;SDS011;37345;59.828;30.328;2022-09-13T09:48:52;2.90;;;1.80;;
51272;SDS011;37345;59.828;30.328;2022-09-13T09:51:18;5.57;;;2.17;;
51272;SDS011;37345;59.828;30.328;2022-09-13T09:53:46;3.47;;;2.08;;
51272;SDS011;37345;59.828;30.328;2022-09-13T09:56:18;2.30;;;1.60;;
51272;SDS011;37345;59.828;30.328;2022-09-13T09:58:45;2.33;;;1.83;;
51272;SDS011;37345;59.828;30.328;2022-09-13T10:01:28;7.45;;;2.13;;
51272;SDS011;37345;59.828;30.328;2022-09-13T10:06:24;6.25;;;2.05;;
51272;SDS011;37345;59.828;30.328;2022-09-13T10:08:54;2.72;;;2.08;;
51272;SDS011;37345;59.828;30.328;2022-09-13T10:11:20;2.58;;;1.98;;
51272;SDS011;37345;59.828;30.328;2022-09-13T10:14:00;3.07;;;1.83;;
51272;SDS011;37345;59.828;30.328;2022-09-13T10:16:30;6.05;;;2.00;;
51272;SDS011;37345;59.828;30.328;2022-09-13T10:21:41;3.78;;;2.13;;
51272;SDS011;37345;59.828;30.328;2022-09-13T10:24:16;5.00;;;2.08;;
51272;SDS011;37345;59.828;30.328;2022-09-13T10:26:45;3.38;;;1.95;;
51272;SDS011;37345;59.828;30.328;2022-09-13T10:29:14;4.70;;;1.92;;
51272;SDS011;37345;59.828;30.328;2022-09-13T10:31:42;6.07;;;2.70;;
51272;SDS011;37345;59.828;30.328;2022-09-13T10:34:24;2.45;;;1.98;;
51272;SDS011;37345;59.828;30.328;2022-09-13T10:36:58;2.83;;;1.42;;
51272;SDS011;37345;59.828;30.328;2022-09-13T10:39:27;2.45;;;1.92;;
51272;SDS011;37345;59.828;30.328;2022-09-13T10:41:58;3.53;;;1.88;;
51272;SDS011;37345;59.828;30.328;2022-09-13T10:46:54;2.87;;;1.53;;
51272;SDS011;37345;59.828;30.328;2022-09-13T10:52:33;2.20;;;1.40;;
51272;SDS011;37345;59.828;30.328;2022-09-13T10:57:44;5.30;;;1.70;;
51272;SDS011;37345;59.828;30.328;2022-09-13T11:00:12;4.00;;;1.65;;
51272;SDS011;37345;59.828;30.328;2022-09-13T11:10:45;4.68;;;1.45;;
51272;SDS011;37345;59.828;30.328;2022-09-13T11:18:13;1.60;;;1.27;;
51272;SDS011;37345;59.828;30.328;2022-09-13T11:23:28;2.65;;;1.60;;
51272;SDS011;37345;59.828;30.328;2022-09-13T11:36:28;1.35;;;1.15;;
51272;SDS011;37345;59.828;30.328;2022-09-13T11:52:22;7.30;;;1.67;;
51272;SDS011;37345;59.828;30.328;2022-09-13T11:57:24;4.13;;;1.25;;
51272;SDS011;37345;59.828;30.328;2022-09-13T11:59:59;2.33;;;1.08;;
51272;SDS011;37345;59.828;30.328;2022-09-13T12:02:28;3.70;;;1.30;;
51272;SDS011;37345;59.828;30.328;2022-09-13T12:10:29;2.20;;;1.33;;
51272;SDS011;37345;59.828;30.328;2022-09-13T12:12:57;1.60;;;1.20;;
51272;SDS011;37345;59.828;30.328;2022-09-13T12:15:31;3.38;;;1.10;;
51272;SDS011;37345;59.828;30.328;2022-09-13T12:18:03;2.35;;;1.35;;
51272;SDS011;37345;59.828;30.328;2022-09-13T12:20:34;3.90;;;1.05;;
51272;SDS011;37345;59.828;30.328;2022-09-13T12:23:06;2.58;;;1.60;;
51272;SDS011;37345;59.828;30.328;2022-09-13T12:25:48;1.58;;;1.20;;
51272;SDS011;37345;59.828;30.328;2022-09-13T12:28:23;2.07;;;1.33;;
51272;SDS011;37345;59.828;30.328;2022-09-13T12:30:53;2.20;;;1.17;;
51272;SDS011;37345;59.828;30.328;2022-09-13T12:33:21;2.28;;;1.30;;
51272;SDS011;37345;59.828;30.328;2022-09-13T12:48:22;2.80;;;1.50;;
51272;SDS011;37345;59.828;30.328;2022-09-13T12:58:54;2.78;;;1.30;;
51272;SDS011;37345;59.828;30.328;2022-09-13T13:01:24;2.40;;;1.55;;
51272;SDS011;37345;59.828;30.328;2022-09-13T13:03:58;1.98;;;1.30;;
51272;SDS011;37345;59.828;30.328;2022-09-13T13:06:33;2.53;;;1.48;;
51272;SDS011;37345;59.828;30.328;2022-09-13T13:09:03;4.65;;;1.75;;
51272;SDS011;37345;59.828;30.328;2022-09-13T13:11:39;3.60;;;1.80;;
51272;SDS011;37345;59.828;30.328;2022-09-13T13:14:10;4.90;;;2.00;;
51272;SDS011;37345;59.828;30.328;2022-09-13T13:16:50;3.97;;;1.47;;
51272;SDS011;37345;59.828;30.328;2022-09-13T13:19:32;3.35;;;1.48;;
51272;SDS011;37345;59.828;30.328;2022-09-13T13:24:46;3.75;;;1.80;;
51272;SDS011;37345;59.828;30.328;2022-09-13T13:27:31;4.15;;;1.65;;
51272;SDS011;37345;59.828;30.328;2022-09-13T13:33:03;4.65;;;1.83;;
51272;SDS011;37345;59.828;30.328;2022-09-13T13:35:29;5.73;;;1.57;;
51272;SDS011;37345;59.828;30.328;2022-09-13T13:38:12;4.80;;;1.50;;
51272;SDS011;37345;59.828;30.328;2022-09-13T13:40:39;3.78;;;1.40;;
51272;SDS011;37345;59.828;30.328;2022-09-13T13:43:15;3.22;;;1.85;;
51272;SDS011;37345;59.828;30.328;2022-09-13T13:48:40;4.15;;;1.50;;
51272;SDS011;37345;59.828;30.328;2022-09-13T13:53:41;3.27;;;1.90;;
51272;SDS011;37345;59.828;30.328;2022-09-13T13:58:56;3.05;;;1.23;;
51272;SDS011;37345;59.828;30.328;2022-09-13T14:01:30;2.50;;;1.00;;
51272;SDS011;37345;59.828;30.328;2022-09-13T14:24:39;5.53;;;1.90;;
51272;SDS011;37345;59.828;30.328;2022-09-13T14:27:09;4.63;;;1.23;;
51272;SDS011;37345;59.828;30.328;2022-09-13T14:29:38;1.88;;;1.48;;
51272;SDS011;37345;59.828;30.328;2022-09-13T14:32:05;3.65;;;1.40;;
51272;SDS011;37345;59.828;30.328;2022-09-13T14:34:35;3.90;;;1.20;;
51272;SDS011;37345;59.828;30.328;2022-09-13T14:37:15;4.20;;;1.52;;
51272;SDS011;37345;59.828;30.328;2022-09-13T14:39:55;4.27;;;1.80;;
51272;SDS011;37345;59.828;30.328;2022-09-13T14:42:21;1.92;;;1.00;;
51272;SDS011;37345;59.828;30.328;2022-09-13T14:44:47;4.20;;;1.30;;
51272;SDS011;37345;59.828;30.328;2022-09-13T14:49:40;3.50;;;1.37;;
51272;SDS011;37345;59.828;30.328;2022-09-13T14:52:09;4.53;;;1.13;;
51272;SDS011;37345;59.828;30.328;2022-09-13T14:54:41;2.57;;;1.30;;
51272;SDS011;37345;59.828;30.328;2022-09-13T14:57:13;2.73;;;1.20;;
51272;SDS011;37345;59.828;30.328;2022-09-13T14:59:44;3.00;;;1.20;;
51272;SDS011;37345;59.828;30.328;2022-09-13T15:02:35;1.92;;;1.15;;
51272;SDS011;37345;59.828;30.328;2022-09-13T15:04:59;2.10;;;1.15;;
51272;SDS011;37345;59.828;30.328;2022-09-13T15:07:27;3.58;;;1.33;;
51272;SDS011;37345;59.828;30.328;2022-09-13T15:09:55;2.70;;;1.10;;
51272;SDS011;37345;59.828;30.328;2022-09-13T15:12:25;2.70;;;1.42;;
51272;SDS011;37345;59.828;30.328;2022-09-13T15:23:25;4.88;;;1.30;;
51272;SDS011;37345;59.828;30.328;2022-09-13T15:26:04;3.08;;;1.40;;
51272;SDS011;37345;59.828;30.328;2022-09-13T15:28:32;4.93;;;1.50;;
51272;SDS011;37345;59.828;30.328;2022-09-13T15:30:59;3.47;;;1.50;;
51272;SDS011;37345;59.828;30.328;2022-09-13T15:33:44;3.33;;;1.40;;
51272;SDS011;37345;59.828;30.328;2022-09-13T15:41:51;4.68;;;1.90;;
51272;SDS011;37345;59.828;30.328;2022-09-13T15:44:18;4.38;;;1.50;;
51272;SDS011;37345;59.828;30.328;2022-09-13T15:46:54;6.63;;;1.63;;
51272;SDS011;37345;59.828;30.328;2022-09-13T15:49:22;5.57;;;2.00;;
51272;SDS011;37345;59.828;30.328;2022-09-13T15:51:52;5.93;;;1.95;;
51272;SDS011;37345;59.828;30.328;2022-09-13T15:54:18;7.63;;;1.88;;
51272;SDS011;37345;59.828;30.328;2022-09-13T15:56:48;7.22;;;1.80;;
51272;SDS011;37345;59.828;30.328;2022-09-13T15:59:19;5.45;;;1.60;;
51272;SDS011;37345;59.828;30.328;2022-09-13T16:01:46;3.78;;;1.80;;
51272;SDS011;37345;59.828;30.328;2022-09-13T16:04:12;4.18;;;2.03;;
51272;SDS011;37345;59.828;30.328;2022-09-13T16:06:38;4.35;;;1.73;;
51272;SDS011;37345;59.828;30.328;2022-09-13T16:09:21;5.10;;;1.73;;
51272;SDS011;37345;59.828;30.328;2022-09-13T16:11:47;4.90;;;1.70;;
51272;SDS011;37345;59.828;30.328;2022-09-13T16:14:14;5.50;;;1.90;;
51272;SDS011;37345;59.828;30.328;2022-09-13T16:16:41;4.28;;;1.90;;
51272;SDS011;37345;59.828;30.328;2022-09-13T16:19:14;4.38;;;1.85;;
51272;SDS011;37345;59.828;30.328;2022-09-13T16:21:40;5.65;;;1.70;;
51272;SDS011;37345;59.828;30.328;2022-09-13T16:24:06;5.63;;;1.90;;
51272;SDS011;37345;59.828;30.328;2022-09-13T16:26:35;6.10;;;2.67;;
51272;SDS011;37345;59.828;30.328;2022-09-13T16:29:02;6.32;;;2.25;;
51272;SDS011;37345;59.828;30.328;2022-09-13T16:31:28;5.72;;;2.03;;
51272;SDS011;37345;59.828;30.328;2022-09-13T16:33:54;4.65;;;1.98;;
51272;SDS011;37345;59.828;30.328;2022-09-13T16:36:20;2.70;;;1.90;;
51272;SDS011;37345;59.828;30.328;2022-09-13T16:38:46;8.55;;;5.10;;
51272;SDS011;37345;59.828;30.328;2022-09-13T16:41:13;7.20;;;3.65;;
51272;SDS011;37345;59.828;30.328;2022-09-13T16:43:39;4.60;;;2.00;;
51272;SDS011;37345;59.828;30.328;2022-09-13T16:46:08;9.20;;;4.70;;
51272;SDS011;37345;59.828;30.328;2022-09-13T16:48:35;13.68;;;6.35;;
51272;SDS011;37345;59.828;30.328;2022-09-13T16:51:05;8.32;;;4.18;;
51272;SDS011;37345;59.828;30.328;2022-09-13T16:53:32;3.90;;;1.92;;
51272;SDS011;37345;59.828;30.328;2022-09-13T16:56:05;5.05;;;3.22;;
51272;SDS011;37345;59.828;30.328;2022-09-13T16:58:34;10.25;;;5.78;;
51272;SDS011;37345;59.828;30.328;2022-09-13T17:01:02;6.32;;;2.83;;
51272;SDS011;37345;59.828;30.328;2022-09-13T17:03:31;9.23;;;2.08;;
51272;SDS011;37345;59.828;30.328;2022-09-13T17:06:00;8.33;;;3.57;;
51272;SDS011;37345;59.828;30.328;2022-09-13T17:08:28;8.47;;;3.03;;
51272;SDS011;37345;59.828;30.328;2022-09-13T17:10:54;3.67;;;2.40;;
51272;SDS011;37345;59.828;30.328;2022-09-13T17:13:23;7.82;;;4.63;;
51272;SDS011;37345;59.828;30.328;2022-09-13T17:15:49;16.33;;;8.23;;
51272;SDS011;37345;59.828;30.328;2022-09-13T17:18:17;4.43;;;1.52;;
51272;SDS011;37345;59.828;30.328;2022-09-13T17:20:44;3.73;;;1.57;;
51272;SDS011;37345;59.828;30.328;2022-09-13T17:23:11;9.40;;;5.15;;
51272;SDS011;37345;59.828;30.328;2022-09-13T17:25:41;4.32;;;1.80;;
51272;SDS011;37345;59.828;30.328;2022-09-13T17:28:12;6.07;;;1.35;;
51272;SDS011;37345;59.828;30.328;2022-09-13T17:30:39;8.07;;;3.70;;
51272;SDS011;37345;59.828;30.328;2022-09-13T17:33:06;3.47;;;2.10;;
51272;SDS011;37345;59.828;30.328;2022-09-13T17:35:35;5.60;;;1.63;;
51272;SDS011;37345;59.828;30.328;2022-09-13T17:38:01;7.15;;;1.77;;
51272;SDS011;37345;59.828;30.328;2022-09-13T17:40:28;5.97;;;2.05;;
51272;SDS011;37345;59.828;30.328;2022-09-13T17:42:55;2.08;;;1.30;;
51272;SDS011;37345;59.828;30.328;2022-09-13T17:45:21;3.95;;;2.00;;
51272;SDS011;37345;59.828;30.328;2022-09-13T17:47:47;3.93;;;1.70;;
51272;SDS011;37345;59.828;30.328;2022-09-13T17:50:16;1.52;;;1.10;;
51272;SDS011;37345;59.828;30.328;2022-09-13T17:52:42;2.80;;;1.45;;
51272;SDS011;37345;59.828;30.328;2022-09-13T17:55:08;4.80;;;1.50;;
51272;SDS011;37345;59.828;30.328;2022-09-13T17:57:36;2.50;;;1.17;;
51272;SDS011;37345;59.828;30.328;2022-09-13T18:00:03;3.22;;;1.10;;
51272;SDS011;37345;59.828;30.328;2022-09-13T18:02:30;2.97;;;1.20;;
51272;SDS011;37345;59.828;30.328;2022-09-13T18:04:56;2.17;;;1.30;;
51272;SDS011;37345;59.828;30.328;2022-09-13T18:07:21;3.20;;;1.07;;
51272;SDS011;37345;59.828;30.328;2022-09-13T18:09:47;3.55;;;1.30;;
51272;SDS011;37345;59.828;30.328;2022-09-13T18:12:13;3.17;;;1.20;;
51272;SDS011;37345;59.828;30.328;2022-09-13T18:14:39;2.65;;;1.30;;
51272;SDS011;37345;59.828;30.328;2022-09-13T18:17:05;4.03;;;1.30;;
51272;SDS011;37345;59.828;30.328;2022-09-13T18:19:38;4.20;;;1.33;;
51272;SDS011;37345;59.828;30.328;2022-09-13T18:22:04;1.85;;;1.23;;
51272;SDS011;37345;59.828;30.328;2022-09-13T18:24:30;6.35;;;1.60;;
51272;SDS011;37345;59.828;30.328;2022-09-13T18:26:57;1.30;;;1.08;;
51272;SDS011;37345;59.828;30.328;2022-09-13T18:29:24;1.48;;;0.90;;
51272;SDS011;37345;59.828;30.328;2022-09-13T18:31:52;2.00;;;1.10;;